Time;durP1;ratioP1;P1;durP2;ratioP2;P2;SDS_P1;SDS_P2;PMS_P1;PMS_P2;Temp;Humidity;BMP_temperature;BMP_pressure;BME280_temperature;BME280_humidity;BME280_pressure;Samples;Min_cycle;Max_cycle;Signal;HPM_P1;HPM_P2
2023/09/23 00:01:59;;;;;;;9.20;3.30;;;;;;;22.46;62.16;98185.86;232856;215;136948;-61
2023/09/23 00:07:04;;;;;;;6.70;3.30;;;;;;;22.50;62.10;98187.03;232776;215;147382;-60
2023/09/23 00:12:09;;;;;;;9.00;3.30;;;;;;;22.51;61.86;98180.69;232745;215;138657;-60
2023/09/23 00:17:13;;;;;;;7.50;3.10;;;;;;;22.52;62.09;98188.67;232816;215;137911;-61
2023/09/23 00:22:19;;;;;;;13.70;3.20;;;;;;;22.50;62.21;98205.14;232924;215;145540;-61
2023/09/23 00:27:30;;;;;;;8.00;2.90;;;;;;;22.49;62.56;98207.00;232810;215;139015;-62
2023/09/23 00:32:37;;;;;;;10.40;3.20;;;;;;;22.45;63.22;98202.17;232898;215;136301;-60
2023/09/23 00:37:43;;;;;;;8.70;3.10;;;;;;;22.39;64.04;98202.89;232854;215;144463;-61
2023/09/23 00:42:49;;;;;;;6.30;2.60;;;;;;;22.35;64.63;98198.91;232865;215;138952;-59
2023/09/23 00:47:56;;;;;;;9.40;3.10;;;;;;;22.33;65.21;98194.10;232938;215;140121;-61
2023/09/23 00:53:04;;;;;;;7.40;2.70;;;;;;;22.34;65.52;98189.30;232841;215;146187;-62
2023/09/23 00:58:15;;;;;;;8.80;3.00;;;;;;;22.29;65.90;98182.08;232877;215;141933;-61
2023/09/23 01:03:22;;;;;;;11.30;2.80;;;;;;;22.23;66.23;98168.25;232840;215;138343;-61
2023/09/23 01:08:28;;;;;;;5.00;2.70;;;;;;;22.16;66.54;98157.52;232856;215;145737;-60
2023/09/23 01:13:32;;;;;;;11.00;3.30;;;;;;;22.12;66.60;98155.50;232891;215;138698;-62
2023/09/23 01:18:38;;;;;;;7.10;2.80;;;;;;;22.08;66.80;98158.13;232879;215;137020;-61
2023/09/23 01:23:45;;;;;;;8.90;2.50;;;;;;;22.08;66.80;98157.11;232856;215;145971;-60
2023/09/23 01:28:50;;;;;;;9.10;2.50;;;;;;;22.06;66.87;98164.35;232917;215;138599;-61
2023/09/23 01:33:55;;;;;;;6.80;2.60;;;;;;;22.09;67.16;98163.34;232837;215;138459;-59
2023/09/23 01:39:04;;;;;;;6.70;2.70;;;;;;;22.15;67.23;98170.17;232888;215;146435;-57
2023/09/23 01:44:08;;;;;;;9.00;3.10;;;;;;;22.13;67.44;98172.90;232890;215;139486;-57
2023/09/23 01:49:16;;;;;;;11.70;3.10;;;;;;;22.10;67.98;98176.15;232778;215;137869;-63
2023/09/23 01:54:21;;;;;;;6.00;2.70;;;;;;;22.01;68.55;98168.75;232974;215;145559;-62
2023/09/23 01:59:26;;;;;;;8.20;3.10;;;;;;;21.90;68.86;98175.90;232848;215;138937;-60
2023/09/23 02:04:33;;;;;;;;;;;;;;;21.79;69.24;98187.35;233057;215;136778;-62
2023/09/23 02:09:38;;;;;;;8.30;3.20;;;;;;;21.75;69.08;98195.29;232813;215;146807;-55
2023/09/23 02:14:43;;;;;;;10.30;3.40;;;;;;;21.76;69.49;98204.67;232827;215;139261;-62
2023/09/23 02:19:47;;;;;;;8.40;3.30;;;;;;;21.76;69.54;98204.34;232825;215;137317;-60
2023/09/23 02:24:53;;;;;;;8.70;4.10;;;;;;;21.74;69.42;98202.02;232858;215;147478;-60
2023/09/23 02:29:57;;;;;;;8.20;4.30;;;;;;;21.72;69.22;98204.63;232747;215;140199;-61
2023/09/23 02:35:06;;;;;;;6.80;3.70;;;;;;;21.67;69.30;98214.85;232895;215;137774;-61
2023/09/23 02:40:14;;;;;;;12.70;3.90;;;;;;;21.64;69.45;98228.55;232964;215;147704;-58
2023/09/23 02:45:20;;;;;;;9.80;3.40;;;;;;;21.59;69.71;98235.34;232804;215;138901;-61
2023/09/23 02:50:26;;;;;;;5.70;2.80;;;;;;;21.56;69.95;98244.54;232921;215;138482;-61
2023/09/23 02:55:31;;;;;;;7.70;2.80;;;;;;;21.59;69.94;98240.95;232783;215;145769;-60
2023/09/23 03:00:37;;;;;;;6.90;3.00;;;;;;;21.58;69.76;98239.91;232680;215;140276;-61
2023/09/23 03:05:50;;;;;;;6.30;3.30;;;;;;;21.47;69.91;98263.65;232843;215;137493;-58
2023/09/23 03:11:02;;;;;;;16.80;6.50;;;;;;;21.32;70.60;98266.88;232940;215;146694;-60
2023/09/23 03:16:13;;;;;;;11.00;6.90;;;;;;;21.17;71.24;98267.91;232738;215;138982;-62
2023/09/23 03:21:17;;;;;;;12.70;7.40;;;;;;;20.99;72.00;98275.71;232834;215;138326;-60
2023/09/23 03:26:23;;;;;;;12.60;8.50;;;;;;;20.91;72.53;98287.59;232790;215;145852;-61
2023/09/23 03:31:26;;;;;;;13.20;9.60;;;;;;;20.87;73.05;98290.14;232826;215;139591;-61
2023/09/23 03:36:32;;;;;;;19.70;11.20;;;;;;;20.86;73.29;98306.93;232807;215;137690;-60
2023/09/23 03:41:37;;;;;;;15.80;12.10;;;;;;;20.76;73.78;98308.60;232786;215;147348;-64
2023/09/23 03:46:47;;;;;;;17.50;12.20;;;;;;;20.68;74.06;98304.65;232816;215;138990;-60
2023/09/23 03:51:52;;;;;;;17.10;12.20;;;;;;;20.64;74.33;98319.75;232820;215;138284;-60
2023/09/23 03:56:57;;;;;;;;;;;;;;;20.65;74.71;98324.27;232787;215;145836;-59
2023/09/23 04:02:01;;;;;;;19.50;11.70;;;;;;;20.61;74.81;98328.02;232907;215;139738;-60
2023/09/23 04:07:06;;;;;;;19.20;13.40;;;;;;;20.55;74.94;98334.67;232785;215;137684;-59
2023/09/23 04:12:13;;;;;;;18.40;13.90;;;;;;;20.50;74.97;98330.67;232740;215;146172;-59
2023/09/23 04:17:17;;;;;;;;;;;;;;;20.45;74.67;98347.96;232968;215;138669;-60
2023/09/23 04:22:22;;;;;;;20.00;14.00;;;;;;;20.41;74.54;98366.39;232901;215;131140;-59
2023/09/23 04:27:26;;;;;;;18.30;11.50;;;;;;;20.25;74.40;98361.36;232740;215;145732;-62
2023/09/23 04:32:32;;;;;;;15.60;11.10;;;;;;;20.17;74.35;98355.69;232780;215;139634;-59
2023/09/23 04:37:37;;;;;;;17.10;12.10;;;;;;;20.15;74.37;98355.35;232836;215;137647;-62
2023/09/23 04:42:43;;;;;;;19.60;13.00;;;;;;;20.17;74.47;98343.45;232738;215;145877;-59
2023/09/23 04:47:50;;;;;;;17.20;12.70;;;;;;;20.19;74.43;98355.89;232792;215;139606;-59
2023/09/23 04:52:54;;;;;;;18.60;12.70;;;;;;;20.22;74.45;98364.52;232899;215;137287;-59
2023/09/23 04:57:59;;;;;;;16.30;12.70;;;;;;;20.13;74.12;98362.24;232797;215;146321;-59
2023/09/23 05:03:08;;;;;;;17.20;13.60;;;;;;;20.09;74.19;98367.05;232740;215;139723;-56
2023/09/23 05:08:12;;;;;;;22.60;14.70;;;;;;;20.03;74.37;98378.81;232896;215;141582;-61
2023/09/23 05:13:17;;;;;;;21.30;15.40;;;;;;;20.00;74.40;98373.31;232794;215;145804;-61
2023/09/23 05:18:23;;;;;;;19.50;15.50;;;;;;;19.96;74.24;98369.23;232848;215;141242;-61
2023/09/23 05:23:26;;;;;;;22.60;15.00;;;;;;;19.95;74.29;98381.79;233051;215;137352;-61
2023/09/23 05:28:31;;;;;;;17.70;14.20;;;;;;;19.93;74.28;98395.27;232820;215;145677;-60
2023/09/23 05:33:35;;;;;;;17.50;13.80;;;;;;;19.92;74.36;98404.76;232695;215;139492;-62
2023/09/23 05:38:40;;;;;;;18.70;14.40;;;;;;;19.97;74.29;98423.25;232849;215;138172;-62
2023/09/23 05:43:49;;;;;;;21.10;15.20;;;;;;;20.01;73.91;98415.45;232742;215;145782;-61
2023/09/23 05:48:54;;;;;;;19.90;15.30;;;;;;;20.02;74.05;98418.75;232776;215;139435;-59
2023/09/23 05:53:59;;;;;;;22.90;15.30;;;;;;;19.99;74.19;98422.17;232764;215;137038;-59
2023/09/23 08:05:29;;;;;;;20.20;14.90;;;;;;;19.46;75.40;98595.96;231284;224;698488;-60
2023/09/23 08:10:34;;;;;;;18.10;13.90;;;;;;;19.44;75.30;98596.84;232547;218;137369;-58
2023/09/23 08:15:40;;;;;;;16.20;13.00;;;;;;;19.39;75.27;98595.48;232732;216;147094;-56
2023/09/23 08:20:45;;;;;;;18.80;14.20;;;;;;;19.40;75.59;98608.90;232808;216;139613;-60
2023/09/23 08:25:54;;;;;;;23.80;15.00;;;;;;;19.38;75.50;98601.23;232758;216;136467;-58
2023/09/23 08:31:00;;;;;;;20.90;14.40;;;;;;;19.35;75.93;98615.38;232791;216;144847;-61
2023/09/23 08:36:06;;;;;;;16.90;12.90;;;;;;;19.34;75.79;98618.17;232967;216;139293;-59
2023/09/23 08:41:15;;;;;;;11.90;8.60;;;;;;;19.29;76.04;98626.89;232798;216;137380;-61
2023/09/23 09:10:46;;;;;;;6.00;3.90;;;;;;;19.40;74.72;98655.66;231312;223;727040;-57
2023/09/23 09:15:53;;;;;;;8.40;3.60;;;;;;;19.43;75.66;98676.89;232064;219;136911;-58
2023/09/23 09:20:58;;;;;;;4.50;3.20;;;;;;;19.48;75.82;98686.70;232629;218;145932;-58
2023/09/23 09:26:04;;;;;;;;;;;;;;;19.45;75.70;98693.23;232808;215;140844;-55
2023/09/23 09:31:14;;;;;;;7.70;4.90;;;;;;;19.30;76.41;98677.36;232944;216;129333;-57
2023/09/23 09:36:23;;;;;;;4.20;3.30;;;;;;;19.12;76.88;98677.34;232925;215;144774;-57
2023/09/23 09:41:34;;;;;;;3.30;2.10;;;;;;;18.90;77.50;98680.59;232823;215;139614;-58
2023/09/23 09:46:42;;;;;;;2.40;1.70;;;;;;;18.78;78.01;98688.66;232875;216;141408;-56
2023/09/23 09:51:50;;;;;;;1.70;1.30;;;;;;;18.72;78.34;98692.94;232780;216;144161;-59
2023/09/23 09:56:56;;;;;;;2.70;1.90;;;;;;;18.65;78.61;98689.83;232750;216;139638;-59
2023/09/23 10:02:04;;;;;;;1.60;1.30;;;;;;;18.57;79.10;98691.91;232749;215;136888;-59
2023/09/23 10:07:09;;;;;;;2.10;1.20;;;;;;;18.51;79.70;98719.21;232713;215;145581;-55
2023/09/23 10:12:19;;;;;;;2.40;1.20;;;;;;;18.46;79.96;98724.91;232858;215;140295;-58
2023/09/23 10:17:32;;;;;;;2.10;1.10;;;;;;;18.45;80.15;98723.23;232792;215;137736;-58
2023/09/23 10:22:36;;;;;;;2.10;1.20;;;;;;;18.49;80.31;98731.98;232749;216;147397;-59
2023/09/23 10:27:59;;;;;;;1.40;1.00;;;;;;;18.53;80.23;98722.96;232764;216;139837;-58
2023/09/23 10:33:06;;;;;;;1.90;1.00;;;;;;;18.55;80.02;98714.84;232669;215;137089;-56
2023/09/23 10:38:21;;;;;;;1.90;0.90;;;;;;;18.55;79.99;98711.79;232736;216;147491;-58
2023/09/23 10:43:26;;;;;;;1.10;0.80;;;;;;;18.58;79.92;98699.87;232906;215;141358;-59
2023/09/23 10:48:31;;;;;;;1.60;0.90;;;;;;;18.64;80.41;98698.48;234562;215;136262;-59
2023/09/23 10:53:34;;;;;;;3.00;0.90;;;;;;;18.80;80.83;98696.25;234345;216;146592;-59
2023/09/23 10:58:38;;;;;;;1.10;0.80;;;;;;;18.89;80.99;98691.17;234581;216;139432;-55
2023/09/23 11:08:45;;;;;;;0.80;0.70;;;;;;;19.19;81.11;98687.59;231492;223;734906;-58
2023/09/23 11:13:54;;;;;;;1.20;0.90;;;;;;;19.27;80.83;98688.67;232838;216;136775;-58
2023/09/23 11:19:08;;;;;;;1.70;1.20;;;;;;;19.29;80.11;98674.41;233045;216;144706;-58
2023/09/23 11:24:14;;;;;;;1.00;0.90;;;;;;;19.32;79.54;98671.42;232925;216;140314;-58
2023/09/23 11:29:19;;;;;;;2.00;1.10;;;;;;;19.34;78.94;98670.63;232816;216;137817;-62
2023/09/23 11:34:24;;;;;;;2.90;1.30;;;;;;;19.33;78.91;98668.13;232801;216;145010;-61
2023/09/23 11:39:35;;;;;;;2.20;1.70;;;;;;;19.30;79.11;98647.16;232720;216;139640;-58
2023/09/23 11:44:43;;;;;;;2.40;1.80;;;;;;;19.34;78.77;98634.01;232875;216;136042;-58
2023/09/23 11:49:49;;;;;;;2.40;1.00;;;;;;;19.39;78.93;98634.05;232802;217;146571;-58
2023/09/23 11:54:55;;;;;;;0.50;0.50;;;;;;;19.48;78.57;98659.21;234586;215;139162;-59
2023/09/23 11:59:58;;;;;;;0.90;0.70;;;;;;;19.44;77.52;98671.65;234432;216;136638;-59
2023/09/23 12:10:20;;;;;;;2.10;0.90;;;;;;;19.32;77.88;98676.83;231270;224;723357;-59
2023/09/23 12:15:26;;;;;;;;;;;;;;;19.23;78.15;98687.27;232412;218;137224;-59
2023/09/23 12:20:32;;;;;;;;;;;;;;;19.19;77.97;98694.02;232918;216;144837;-58
2023/09/23 12:25:38;;;;;;;1.60;0.80;;;;;;;19.16;77.98;98690.38;232900;216;149865;-59
2023/09/23 12:30:41;;;;;;;1.00;0.60;;;;;;;19.10;78.17;98694.02;232985;216;137041;-57
2023/09/23 12:35:47;;;;;;;1.10;0.70;;;;;;;19.00;78.07;98698.97;232779;216;144165;-60
2023/09/23 12:40:52;;;;;;;1.70;0.90;;;;;;;18.94;77.62;98692.59;232805;216;139383;-58
2023/09/23 12:45:57;;;;;;;;;;;;;;;18.89;77.70;98670.86;232833;215;138130;-58
2023/09/23 12:51:02;;;;;;;0.90;0.70;;;;;;;18.86;77.97;98697.54;232883;216;144081;-55
2023/09/23 12:56:09;;;;;;;1.60;0.90;;;;;;;18.80;77.29;98734.45;232777;216;140674;-59
2023/09/23 13:01:16;;;;;;;1.70;1.00;;;;;;;18.70;77.76;98725.97;232872;216;138103;-60
2023/09/23 13:06:20;;;;;;;2.30;1.00;;;;;;;18.64;78.16;98763.16;232795;216;145576;-60
2023/09/23 13:11:25;;;;;;;2.20;1.10;;;;;;;18.50;78.32;98783.50;232780;216;141455;-59
2023/09/23 13:16:33;;;;;;;1.60;0.80;;;;;;;18.42;79.33;98783.75;232785;213;138260;-61
2023/09/23 13:21:40;;;;;;;2.70;1.30;;;;;;;18.38;79.88;98782.32;232838;216;146162;-58
2023/09/23 13:26:44;;;;;;;4.80;1.60;;;;;;;18.36;79.97;98778.33;232846;216;139293;-58
2023/09/23 13:31:48;;;;;;;1.60;1.50;;;;;;;18.35;80.11;98785.83;232911;216;137110;-55
2023/09/23 13:36:52;;;;;;;1.50;1.00;;;;;;;18.27;80.20;98802.23;232978;216;148902;-58
2023/09/23 13:41:59;;;;;;;3.50;1.20;;;;;;;18.16;80.49;98815.47;232807;216;139929;-59
2023/09/23 13:47:02;;;;;;;1.40;1.00;;;;;;;18.15;81.26;98802.36;232827;216;137904;-54
2023/09/23 13:52:11;;;;;;;4.00;1.40;;;;;;;18.24;81.91;98800.08;232837;216;145934;-56
2023/09/23 13:57:16;;;;;;;2.60;1.30;;;;;;;18.27;81.67;98799.42;232835;216;138622;-59
2023/09/23 14:02:22;;;;;;;3.30;1.00;;;;;;;18.28;81.73;98812.25;232742;215;137294;-58
2023/09/23 14:07:28;;;;;;;2.00;1.30;;;;;;;18.31;81.51;98819.59;232859;216;146427;-59
2023/09/23 14:12:33;;;;;;;1.80;1.20;;;;;;;18.32;81.02;98824.38;232740;215;139103;-56
2023/09/23 14:17:39;;;;;;;2.00;1.60;;;;;;;18.33;81.56;98824.11;232782;216;136258;-58
2023/09/23 14:22:48;;;;;;;1.80;1.40;;;;;;;18.32;81.35;98830.55;232832;216;145535;-57
2023/09/23 14:27:54;;;;;;;1.40;1.10;;;;;;;18.28;81.28;98851.94;232861;214;138944;-57
2023/09/23 14:33:03;;;;;;;1.20;0.90;;;;;;;18.26;80.98;98874.78;232881;216;138212;-57
2023/09/23 14:38:09;;;;;;;3.20;1.20;;;;;;;18.24;80.61;98884.60;232742;216;149669;-56
2023/09/23 14:43:15;;;;;;;1.50;1.10;;;;;;;18.22;80.35;98897.26;232793;215;138721;-57
2023/09/23 14:48:20;;;;;;;1.40;1.10;;;;;;;18.22;79.60;98904.42;232731;215;136521;-56
2023/09/23 14:53:28;;;;;;;1.20;1.00;;;;;;;18.13;79.39;98902.05;232709;215;146225;-57
2023/09/23 14:58:35;;;;;;;1.20;0.90;;;;;;;18.05;79.63;98894.73;232568;215;139301;-58
2023/09/23 15:03:40;;;;;;;3.40;1.10;;;;;;;18.03;80.26;98903.86;232773;215;138423;-57
2023/09/23 15:08:46;;;;;;;1.50;1.20;;;;;;;18.04;80.47;98908.11;232647;215;147800;-59
2023/09/23 15:14:03;;;;;;;1.90;1.50;;;;;;;18.09;79.65;98916.17;232657;215;141701;-56
2023/09/23 15:19:09;;;;;;;1.70;1.50;;;;;;;18.07;79.23;98922.73;232796;215;137951;-57
2023/09/23 15:24:16;;;;;;;3.00;1.50;;;;;;;17.97;78.80;98925.76;232660;215;147431;-57
2023/09/23 15:29:22;;;;;;;2.30;1.60;;;;;;;17.89;78.48;98942.38;232717;215;140309;-57
2023/09/23 15:34:30;;;;;;;2.10;1.40;;;;;;;17.92;78.65;98962.36;232710;215;140584;-58
2023/09/23 15:39:36;;;;;;;4.00;1.60;;;;;;;17.95;77.15;98971.03;232614;215;146660;-57
2023/09/23 15:44:41;;;;;;;3.00;1.60;;;;;;;17.81;76.71;98972.23;232662;215;140175;-57
2023/09/23 15:49:49;;;;;;;6.20;3.30;;;;;;;17.68;77.43;98979.95;232868;215;137841;-57
2023/09/23 15:54:58;;;;;;;3.40;1.60;;;;;;;17.69;77.14;98984.16;232715;215;146920;-57
2023/09/23 16:00:09;;;;;;;3.70;1.90;;;;;;;17.52;77.14;98984.86;232561;215;140750;-57
2023/09/23 16:05:13;;;;;;;2.20;1.60;;;;;;;17.40;77.60;98987.23;232756;215;137607;-58
2023/09/23 16:10:18;;;;;;;2.00;1.40;;;;;;;17.36;77.65;98986.48;232640;215;145659;-60
2023/09/23 16:15:23;;;;;;;6.70;2.10;;;;;;;17.29;77.91;98993.27;232609;215;140732;-58
2023/09/23 16:20:27;;;;;;;2.90;1.70;;;;;;;17.23;78.23;99004.75;232631;215;137130;-57
2023/09/23 16:25:33;;;;;;;4.70;2.70;;;;;;;17.16;78.32;99004.05;232730;214;146023;-57
2023/09/23 16:30:40;;;;;;;2.50;2.00;;;;;;;17.11;78.83;99008.33;232606;215;142521;-56
2023/09/23 16:40:28;;;;;;;3.30;1.60;;;;;;;17.18;80.44;99031.91;231217;224;724323;-58
2023/09/23 16:45:34;;;;;;;2.10;1.50;;;;;;;17.58;80.31;99039.59;232556;214;137060;-61
2023/09/23 16:50:39;;;;;;;;;;;;;;;17.79;79.01;99045.39;232541;214;145252;-54
2023/09/23 16:55:45;;;;;;;3.10;2.00;;;;;;;17.85;78.61;99039.48;232748;214;138867;-54
2023/09/23 17:00:51;;;;;;;6.70;2.70;;;;;;;17.87;78.16;99048.27;232567;214;137793;-56
2023/09/23 17:05:58;;;;;;;3.30;2.10;;;;;;;17.98;77.90;99062.89;232690;215;145491;-57
2023/09/23 17:11:06;;;;;;;3.50;2.00;;;;;;;18.04;76.90;99069.36;232579;214;139626;-61
2023/09/23 17:16:14;;;;;;;5.10;1.90;;;;;;;18.05;76.20;99064.59;232586;215;136505;-58
2023/09/23 17:21:19;;;;;;;6.40;3.10;;;;;;;18.10;76.56;99066.06;232584;215;145377;-57
2023/09/23 17:26:24;;;;;;;6.90;3.50;;;;;;;18.49;76.64;99070.51;232605;214;139751;-59
2023/09/23 17:31:30;;;;;;;7.10;2.80;;;;;;;18.83;75.61;99077.52;232680;214;136863;-57
2023/09/23 17:36:35;;;;;;;4.60;2.00;;;;;;;19.00;74.72;99090.27;232776;214;146419;-58
2023/09/23 17:41:40;;;;;;;7.00;2.40;;;;;;;19.10;74.25;99101.20;232434;214;139277;-57
2023/09/23 17:46:48;;;;;;;3.40;2.40;;;;;;;19.19;73.57;99115.30;232533;214;137592;-57
2023/09/23 17:51:57;;;;;;;3.40;2.30;;;;;;;19.28;73.30;99118.69;232702;214;146408;-59
2023/09/23 17:57:04;;;;;;;4.90;2.50;;;;;;;19.40;72.89;99125.83;232823;215;140330;-57
2023/09/23 18:02:12;;;;;;;4.20;2.60;;;;;;;19.49;72.38;99131.41;232696;215;136349;-60
2023/09/23 18:07:20;;;;;;;3.30;2.60;;;;;;;19.33;72.44;99141.46;232712;214;147897;-57
2023/09/23 18:12:28;;;;;;;4.60;2.60;;;;;;;18.98;72.15;99155.23;232620;214;138815;-59
2023/09/23 18:17:33;;;;;;;4.20;2.90;;;;;;;18.56;72.86;99166.68;232577;214;137152;-58
2023/09/23 18:22:40;;;;;;;4.60;3.00;;;;;;;18.26;73.87;99177.88;232526;212;148067;-56
2023/09/23 18:27:47;;;;;;;3.80;2.60;;;;;;;18.01;74.74;99187.40;232523;214;139304;-57
2023/09/23 18:32:52;;;;;;;;;;;;;;;17.84;75.56;99198.95;232627;214;137804;-55
2023/09/23 18:37:59;;;;;;;4.90;3.10;;;;;;;17.72;76.20;99199.11;232724;214;146408;-58
2023/09/23 18:43:04;;;;;;;5.10;3.20;;;;;;;17.62;76.56;99196.02;232566;214;140322;-57
2023/09/23 18:48:09;;;;;;;4.00;3.30;;;;;;;17.56;76.93;99198.77;232567;214;137223;-57
2023/09/23 18:53:28;;;;;;;5.60;3.50;;;;;;;17.53;77.17;99206.92;232559;214;146436;-57
2023/09/23 18:58:33;;;;;;;5.50;3.20;;;;;;;17.44;77.94;99210.67;232586;208;140178;-58
2023/09/23 19:03:39;;;;;;;4.50;2.80;;;;;;;17.39;77.77;99209.19;232697;214;138412;-58
2023/09/23 19:08:46;;;;;;;4.90;3.60;;;;;;;17.38;78.13;99210.69;232675;214;147386;-59
2023/09/23 19:13:56;;;;;;;4.70;3.80;;;;;;;17.38;78.15;99223.80;232794;214;138656;-60
2023/09/23 19:19:05;;;;;;;9.80;3.90;;;;;;;17.36;78.30;99234.58;232588;214;136821;-57
2023/09/23 19:24:12;;;;;;;7.00;4.20;;;;;;;17.35;78.73;99242.34;232674;215;147097;-60
2023/09/23 19:29:20;;;;;;;5.50;3.70;;;;;;;17.27;79.00;99240.02;232709;214;139313;-60
2023/09/23 19:34:29;;;;;;;5.30;3.50;;;;;;;17.21;79.38;99223.11;232739;215;138773;-60
2023/09/23 19:39:37;;;;;;;6.60;3.50;;;;;;;17.21;79.57;99227.19;232753;215;147330;-57
2023/09/23 19:44:45;;;;;;;6.10;4.10;;;;;;;17.18;79.67;99220.66;232740;215;138962;-58
2023/09/23 19:49:53;;;;;;;6.80;4.50;;;;;;;17.18;80.08;99219.60;233031;215;137264;-58
2023/09/23 19:54:57;;;;;;;8.00;4.20;;;;;;;17.18;80.19;99225.19;232831;215;146391;-55
2023/09/23 20:00:03;;;;;;;8.00;4.20;;;;;;;17.15;80.47;99229.40;232624;215;139953;-57
2023/09/23 20:05:16;;;;;;;8.60;4.20;;;;;;;17.14;80.51;99234.31;232589;214;139613;-58
2023/09/23 20:10:22;;;;;;;8.10;4.50;;;;;;;17.16;80.50;99231.24;232653;215;148018;-59
2023/09/23 20:15:29;;;;;;;8.80;4.80;;;;;;;17.16;80.64;99239.54;232646;215;140700;-60
2023/09/23 20:20:36;;;;;;;7.50;4.50;;;;;;;17.15;80.89;99243.55;232884;215;136734;-60
2023/09/23 20:25:42;;;;;;;8.80;4.10;;;;;;;17.15;81.49;99238.32;232728;215;148487;-60
2023/09/23 20:30:48;;;;;;;8.00;4.50;;;;;;;17.17;81.62;99231.56;232687;215;138993;-61
2023/09/23 20:35:54;;;;;;;;;;;;;;;17.22;81.52;99236.43;232663;215;138632;-57
2023/09/23 20:41:05;;;;;;;8.20;4.30;;;;;;;17.27;81.33;99244.33;232707;215;147246;-56
2023/09/23 20:46:11;;;;;;;6.80;4.40;;;;;;;17.25;81.23;99255.38;232668;215;141290;-59
2023/09/23 20:51:16;;;;;;;;;;;;;;;17.21;81.03;99252.48;232674;215;137580;-59
2023/09/23 20:56:25;;;;;;;6.60;5.10;;;;;;;17.11;81.22;99249.30;232857;215;145395;-60
2023/09/23 21:01:34;;;;;;;7.50;4.90;;;;;;;17.06;81.25;99249.33;232656;215;139552;-60
2023/09/23 21:06:38;;;;;;;8.20;4.80;;;;;;;17.01;81.55;99264.77;232595;215;139294;-57
2023/09/23 21:11:45;;;;;;;7.40;5.10;;;;;;;17.03;81.55;99272.86;232701;215;145784;-60
2023/09/23 21:16:51;;;;;;;6.90;5.00;;;;;;;17.04;81.39;99279.79;232700;215;140387;-59
2023/09/23 21:21:56;;;;;;;8.50;5.30;;;;;;;17.07;81.58;99293.05;232668;215;137068;-58
2023/09/23 21:27:00;;;;;;;13.20;5.30;;;;;;;17.07;81.49;99289.58;232761;215;146659;-58
2023/09/23 21:32:06;;;;;;;7.00;4.80;;;;;;;17.08;81.56;99291.65;232788;215;139566;-63
2023/09/23 21:37:28;;;;;;;7.00;6.20;;;;;;;17.12;81.56;99300.65;231754;221;724409;-59
2023/09/23 21:42:33;;;;;;;9.90;5.70;;;;;;;17.11;81.45;99312.89;232677;218;136305;-60
2023/09/23 21:47:41;;;;;;;8.00;6.30;;;;;;;17.14;81.55;99311.78;232573;218;143994;-56
2023/09/23 21:52:51;;;;;;;8.70;5.50;;;;;;;17.14;81.35;99311.45;232975;216;140373;-60
2023/09/23 21:57:55;;;;;;;10.10;5.50;;;;;;;17.13;81.46;99317.38;232880;216;141763;-59
2023/09/23 22:03:03;;;;;;;9.90;6.60;;;;;;;17.14;81.49;99315.52;232854;216;145422;-57
2023/09/23 22:08:08;;;;;;;10.40;6.10;;;;;;;17.15;81.75;99318.80;232928;215;141315;-60
2023/09/23 22:13:19;;;;;;;12.50;6.80;;;;;;;17.18;81.76;99303.70;232917;216;136344;-60
2023/09/23 22:18:25;;;;;;;11.30;7.00;;;;;;;17.14;81.53;99306.25;232852;215;144856;-60
2023/09/23 22:23:29;;;;;;;9.30;6.60;;;;;;;17.08;81.70;99319.48;232687;215;138628;-61
2023/09/23 22:28:34;;;;;;;8.80;6.20;;;;;;;17.06;81.93;99317.14;232622;214;137851;-60
2023/09/23 22:33:38;;;;;;;10.60;7.00;;;;;;;17.06;82.01;99321.28;232655;214;146703;-59
2023/09/23 22:38:45;;;;;;;8.50;6.70;;;;;;;17.07;82.05;99319.70;232727;215;141307;-60
2023/09/23 22:43:53;;;;;;;13.90;6.80;;;;;;;17.07;81.91;99319.05;232757;214;136568;-59
2023/09/23 22:48:58;;;;;;;9.60;5.90;;;;;;;17.02;82.01;99315.79;232708;215;147167;-60
2023/09/23 22:54:05;;;;;;;9.90;5.40;;;;;;;17.00;81.92;99325.27;232550;214;140315;-59
2023/09/23 22:59:10;;;;;;;9.20;6.30;;;;;;;17.02;81.91;99335.33;232792;215;137600;-60
2023/09/23 23:04:15;;;;;;;10.30;6.90;;;;;;;17.04;81.85;99339.46;232908;214;147386;-61
2023/09/23 23:09:24;;;;;;;9.00;7.00;;;;;;;17.03;81.82;99337.45;232784;215;139354;-60
2023/09/23 23:14:29;;;;;;;;;;;;;;;17.00;82.02;99344.10;232888;213;136902;-60
2023/09/23 23:19:35;;;;;;;14.20;6.40;;;;;;;16.97;82.16;99351.71;232772;213;147640;-59
2023/09/23 23:24:41;;;;;;;10.60;5.80;;;;;;;16.92;82.20;99359.70;232641;215;139330;-60
2023/09/23 23:29:53;;;;;;;10.90;6.00;;;;;;;16.87;82.41;99363.34;232806;215;137171;-59
2023/09/23 23:34:59;;;;;;;9.30;5.90;;;;;;;16.86;82.37;99364.81;232659;215;147013;-59
2023/09/23 23:40:11;;;;;;;9.30;5.80;;;;;;;16.88;82.21;99368.85;232677;215;139464;-53
2023/09/23 23:45:21;;;;;;;10.90;6.50;;;;;;;16.90;82.07;99369.37;232826;215;136578;-57
2023/09/23 23:50:30;;;;;;;8.40;4.90;;;;;;;16.91;81.99;99369.77;232679;215;147264;-59
2023/09/23 23:55:36;;;;;;;6.20;4.80;;;;;;;16.94;82.01;99371.74;232699;215;139161;-60
